createdAt,value
2022-08-03T11:29:30.542Z,34.08
2022-08-03T11:31:58.171Z,34.03
2022-08-03T11:34:26.401Z,33.88
2022-08-03T11:37:23.697Z,34.11
2022-08-03T11:39:54.757Z,33.94
2022-08-03T11:42:22.372Z,34.09
2022-08-03T11:44:50.592Z,34.20
2022-08-03T11:47:20.277Z,34.32
2022-08-03T11:49:49.259Z,34.69
2022-08-03T11:52:17.912Z,33.49
2022-08-03T11:54:45.429Z,34.52
2022-08-03T11:57:13.429Z,34.56
2022-08-03T11:59:41.025Z,34.69
2022-08-03T12:02:12.370Z,34.71
2022-08-03T12:05:03.063Z,34.20
2022-08-03T12:08:03.378Z,34.69
2022-08-03T12:10:18.199Z,35.00
2022-08-03T12:12:46.802Z,35.26
2022-08-03T12:15:14.668Z,35.22
2022-08-03T12:17:42.707Z,35.21
2022-08-03T12:20:10.582Z,35.16
2022-08-03T12:22:39.741Z,34.33
2022-08-03T12:25:08.845Z,35.17
2022-08-03T12:27:36.745Z,35.19
2022-08-03T12:30:05.058Z,35.62
2022-08-03T12:32:32.598Z,36.03
2022-08-03T12:35:01.878Z,35.74
2022-08-03T12:37:30.566Z,36.05
2022-08-03T12:40:07.706Z,36.20
2022-08-03T12:42:39.890Z,36.11
2022-08-03T12:45:24.867Z,36.17
2022-08-03T12:48:02.574Z,36.20
2022-08-03T12:50:33.344Z,36.34
2022-08-03T12:53:02.585Z,36.53
2022-08-03T12:55:56.621Z,36.65
2022-08-03T12:58:33.956Z,36.45
2022-08-03T13:01:05.072Z,35.75
2022-08-03T13:03:49.751Z,36.01
2022-08-03T13:06:25.475Z,36.44
2022-08-03T13:09:05.544Z,35.93
2022-08-03T13:11:55.507Z,36.05
2022-08-03T13:14:21.407Z,36.45
2022-08-03T13:16:49.392Z,36.53
2022-08-03T13:19:17.037Z,37.02
2022-08-03T13:21:53.849Z,36.28
2022-08-03T13:24:33.129Z,36.91
2022-08-03T13:28:01.698Z,37.13
2022-08-03T13:29:50.861Z,37.13
2022-08-03T13:32:18.319Z,36.80
2022-08-03T13:34:45.992Z,37.21
2022-08-03T13:37:13.949Z,36.75
2022-08-03T13:39:57.794Z,37.03
2022-08-03T13:42:26.230Z,36.75
2022-08-03T13:44:53.722Z,37.46
2022-08-03T13:47:21.526Z,37.12
2022-08-03T13:50:00.026Z,37.55
2022-08-03T13:52:31.010Z,37.63
2022-08-03T13:54:58.927Z,37.36
2022-08-03T13:58:04.604Z,37.60
2022-08-03T14:00:16.137Z,37.43
2022-08-03T14:03:06.479Z,37.54
2022-08-03T14:05:38.777Z,37.94
2022-08-03T14:08:07.621Z,38.00
2022-08-03T14:10:38.845Z,38.32
2022-08-03T14:13:06.404Z,38.36
2022-08-03T14:15:38.182Z,38.44
2022-08-03T14:18:15.431Z,37.66
2022-08-03T14:20:49.110Z,38.62
2022-08-03T14:23:19.085Z,38.35
2022-08-03T14:25:51.554Z,37.97
2022-08-03T14:28:25.168Z,38.12
2022-08-03T14:30:53.924Z,38.09
2022-08-03T14:33:21.859Z,38.15
2022-08-03T14:35:50.233Z,38.11
2022-08-03T14:38:18.356Z,38.16
2022-08-03T14:40:46.390Z,38.51
2022-08-03T14:43:14.688Z,38.50
2022-08-03T14:45:42.714Z,38.21
2022-08-03T14:50:32.447Z,38.39
2022-08-03T14:50:57.750Z,39.14
2022-08-03T14:53:25.258Z,42.96
2022-08-03T14:55:53.490Z,50.25
2022-08-03T14:58:23.269Z,51.50
2022-08-03T15:00:52.262Z,52.91
2022-08-03T15:03:23.665Z,53.70
2022-08-03T15:05:52.990Z,55.42
2022-08-03T15:08:21.266Z,54.48
2022-08-03T15:10:49.443Z,55.92
2022-08-03T15:13:17.831Z,55.80
2022-08-03T15:15:45.716Z,57.76
2022-08-03T15:18:13.166Z,58.22
2022-08-03T15:20:45.801Z,57.31
2022-08-03T15:23:15.467Z,56.60
2022-08-03T15:26:04.227Z,56.49
2022-08-03T15:28:32.663Z,58.59
2022-08-03T15:31:01.815Z,57.71
2022-08-03T15:33:29.569Z,59.57
2022-08-03T15:35:57.353Z,58.71
2022-08-03T15:38:26.208Z,60.00
2022-08-03T15:40:57.134Z,57.60
2022-08-03T15:43:24.850Z,59.35
2022-08-03T15:46:12.865Z,59.33
2022-08-03T15:48:41.133Z,59.79
2022-08-03T15:51:09.156Z,58.45
2022-08-03T15:53:37.587Z,58.24
2022-08-03T15:56:12.147Z,59.41
2022-08-03T15:59:03.691Z,57.00
2022-08-03T16:01:30.789Z,59.45
2022-08-03T16:03:58.349Z,58.05
2022-08-03T16:06:35.478Z,58.31
2022-08-03T16:09:23.369Z,59.18
2022-08-03T16:11:51.928Z,59.52
2022-08-03T16:14:34.774Z,58.44
2022-08-03T16:17:05.516Z,55.89
2022-08-03T16:19:32.997Z,57.67
2022-08-03T16:22:01.038Z,58.45
